sensor_id;sensor_type;location;lat;lon;timestamp;pressure;altitude;pressure_sealevel;temperature;humidity
41254;BME280;26987;59.928;30.306;2023-01-28T00:01:14;102300.56;;;-2.85;86.55
41254;BME280;26987;59.928;30.306;2023-01-28T00:03:42;102330.94;;;-2.63;86.67
41254;BME280;26987;59.928;30.306;2023-01-28T00:06:13;102342.91;;;-2.57;87.09
41254;BME280;26987;59.928;30.306;2023-01-28T00:08:42;102341.22;;;-2.58;86.77
41254;BME280;26987;59.928;30.306;2023-01-28T00:11:11;102323.44;;;-2.71;86.46
41254;BME280;26987;59.928;30.306;2023-01-28T00:13:39;102344.16;;;-2.64;86.54
41254;BME280;26987;59.928;30.306;2023-01-28T00:16:08;102345.25;;;-2.69;86.63
41254;BME280;26987;59.928;30.306;2023-01-28T00:18:36;102349.03;;;-2.74;86.22
41254;BME280;26987;59.928;30.306;2023-01-28T00:21:06;102354.13;;;-2.71;85.83
41254;BME280;26987;59.928;30.306;2023-01-28T00:23:37;102315.84;;;-2.93;86.33
41254;BME280;26987;59.928;30.306;2023-01-28T00:26:07;102298.44;;;-3.12;85.32
41254;BME280;26987;59.928;30.306;2023-01-28T00:28:35;102331.91;;;-2.99;85.51
41254;BME280;26987;59.928;30.306;2023-01-28T00:31:07;102340.34;;;-2.93;86.22
41254;BME280;26987;59.928;30.306;2023-01-28T00:33:36;102329.13;;;-2.96;85.86
41254;BME280;26987;59.928;30.306;2023-01-28T00:36:05;102322.25;;;-2.99;85.49
41254;BME280;26987;59.928;30.306;2023-01-28T00:38:34;102314.69;;;-3.05;85.33
41254;BME280;26987;59.928;30.306;2023-01-28T00:41:09;102318.63;;;-2.96;85.71
41254;BME280;26987;59.928;30.306;2023-01-28T00:43:38;102209.47;;;-3.70;85.58
41254;BME280;26987;59.928;30.306;2023-01-28T00:46:10;102319.78;;;-3.02;85.76
41254;BME280;26987;59.928;30.306;2023-01-28T00:48:40;102313.69;;;-3.02;86.08
41254;BME280;26987;59.928;30.306;2023-01-28T00:51:09;102297.50;;;-3.11;85.82
41254;BME280;26987;59.928;30.306;2023-01-28T00:53:39;102287.47;;;-3.20;85.28
41254;BME280;26987;59.928;30.306;2023-01-28T00:56:08;102301.38;;;-3.18;86.30
41254;BME280;26987;59.928;30.306;2023-01-28T00:58:37;102281.75;;;-3.28;85.75
41254;BME280;26987;59.928;30.306;2023-01-28T01:01:07;102301.97;;;-3.13;85.55
41254;BME280;26987;59.928;30.306;2023-01-28T01:03:36;102297.88;;;-3.19;85.73
41254;BME280;26987;59.928;30.306;2023-01-28T01:06:04;102292.03;;;-3.24;86.18
41254;BME280;26987;59.928;30.306;2023-01-28T01:08:33;102281.91;;;-3.32;85.28
41254;BME280;26987;59.928;30.306;2023-01-28T01:11:09;102286.00;;;-3.26;86.13
41254;BME280;26987;59.928;30.306;2023-01-28T01:13:38;102291.56;;;-3.32;86.52
41254;BME280;26987;59.928;30.306;2023-01-28T01:16:08;102293.56;;;-3.37;85.93
41254;BME280;26987;59.928;30.306;2023-01-28T01:18:37;102298.97;;;-3.40;86.38
41254;BME280;26987;59.928;30.306;2023-01-28T01:21:08;102297.25;;;-3.42;86.69
41254;BME280;26987;59.928;30.306;2023-01-28T01:23:36;102272.63;;;-3.57;86.71
41254;BME280;26987;59.928;30.306;2023-01-28T01:26:05;102260.16;;;-3.69;86.44
41254;BME280;26987;59.928;30.306;2023-01-28T01:28:36;102282.75;;;-3.49;86.43
41254;BME280;26987;59.928;30.306;2023-01-28T01:31:09;102272.63;;;-3.57;86.88
41254;BME280;26987;59.928;30.306;2023-01-28T01:33:39;102255.50;;;-3.64;87.45
41254;BME280;26987;59.928;30.306;2023-01-28T01:36:09;102275.03;;;-3.52;86.43
41254;BME280;26987;59.928;30.306;2023-01-28T01:38:38;102286.44;;;-3.53;86.50
41254;BME280;26987;59.928;30.306;2023-01-28T01:41:06;102284.78;;;-3.54;86.38
41254;BME280;26987;59.928;30.306;2023-01-28T01:43:48;102263.16;;;-3.59;86.47
41254;BME280;26987;59.928;30.306;2023-01-28T01:46:18;102270.00;;;-3.57;87.41
41254;BME280;26987;59.928;30.306;2023-01-28T01:48:47;102263.94;;;-3.57;86.20
41254;BME280;26987;59.928;30.306;2023-01-28T01:51:18;102260.75;;;-3.64;86.90
41254;BME280;26987;59.928;30.306;2023-01-28T01:53:50;102244.63;;;-3.74;86.90
41254;BME280;26987;59.928;30.306;2023-01-28T01:56:21;102227.66;;;-3.84;87.07
41254;BME280;26987;59.928;30.306;2023-01-28T01:58:54;102260.16;;;-3.69;86.41
41254;BME280;26987;59.928;30.306;2023-01-28T02:01:27;102238.59;;;-3.76;87.38
41254;BME280;26987;59.928;30.306;2023-01-28T02:04:01;102251.41;;;-3.70;87.36
41254;BME280;26987;59.928;30.306;2023-01-28T02:06:31;102244.84;;;-3.78;87.57
41254;BME280;26987;59.928;30.306;2023-01-28T02:08:59;102248.22;;;-3.76;87.36
41254;BME280;26987;59.928;30.306;2023-01-28T02:11:29;102242.91;;;-3.75;86.93
41254;BME280;26987;59.928;30.306;2023-01-28T02:14:02;102249.88;;;-3.74;87.20
41254;BME280;26987;59.928;30.306;2023-01-28T02:16:31;102238.59;;;-3.76;87.18
41254;BME280;26987;59.928;30.306;2023-01-28T02:18:59;102241.22;;;-3.76;87.51
41254;BME280;26987;59.928;30.306;2023-01-28T02:24:50;102246.19;;;-3.52;86.89
41254;BME280;26987;59.928;30.306;2023-01-28T02:27:27;102231.97;;;-3.65;86.44
41254;BME280;26987;59.928;30.306;2023-01-28T02:30:04;102162.72;;;-4.14;87.08
41254;BME280;26987;59.928;30.306;2023-01-28T02:32:38;102239.41;;;-3.74;86.14
41254;BME280;26987;59.928;30.306;2023-01-28T02:35:12;102215.38;;;-3.84;86.49
41254;BME280;26987;59.928;30.306;2023-01-28T02:37:45;102233.50;;;-3.79;86.82
41254;BME280;26987;59.928;30.306;2023-01-28T02:40:19;102226.81;;;-3.85;86.61
41254;BME280;26987;59.928;30.306;2023-01-28T02:42:48;102217.63;;;-3.94;87.20
41254;BME280;26987;59.928;30.306;2023-01-28T02:45:20;102230.22;;;-3.83;86.64
41254;BME280;26987;59.928;30.306;2023-01-28T02:47:49;102228.56;;;-3.85;87.42
41254;BME280;26987;59.928;30.306;2023-01-28T02:50:43;102229.06;;;-3.77;87.89
41254;BME280;26987;59.928;30.306;2023-01-28T02:53:18;102232.50;;;-3.76;87.03
41254;BME280;26987;59.928;30.306;2023-01-28T02:56:16;102230.06;;;-3.80;87.41
41254;BME280;26987;59.928;30.306;2023-01-28T02:58:51;102211.78;;;-3.81;86.61
41254;BME280;26987;59.928;30.306;2023-01-28T03:01:27;102230.75;;;-3.76;87.47
41254;BME280;26987;59.928;30.306;2023-01-28T03:03:58;102187.75;;;-4.09;87.22
41254;BME280;26987;59.928;30.306;2023-01-28T03:06:32;102228.41;;;-3.82;87.12
41254;BME280;26987;59.928;30.306;2023-01-28T03:09:05;102230.22;;;-3.83;87.39
41254;BME280;26987;59.928;30.306;2023-01-28T03:11:51;102229.44;;;-3.85;87.04
41254;BME280;26987;59.928;30.306;2023-01-28T03:14:37;102217.31;;;-3.87;86.41
41254;BME280;26987;59.928;30.306;2023-01-28T03:17:29;102207.28;;;-3.97;86.74
41254;BME280;26987;59.928;30.306;2023-01-28T03:20:16;102219.00;;;-3.86;86.41
41254;BME280;26987;59.928;30.306;2023-01-28T03:23:08;102227.66;;;-3.84;87.35
41254;BME280;26987;59.928;30.306;2023-01-28T03:25:58;102201.09;;;-3.96;86.38
41254;BME280;26987;59.928;30.306;2023-01-28T03:28:48;102216.53;;;-3.89;86.84
41254;BME280;26987;59.928;30.306;2023-01-28T03:31:34;102221.84;;;-3.91;87.17
41254;BME280;26987;59.928;30.306;2023-01-28T03:34:22;102219.94;;;-3.87;86.92
41254;BME280;26987;59.928;30.306;2023-01-28T03:37:08;102205.44;;;-3.95;87.06
41254;BME280;26987;59.928;30.306;2023-01-28T03:39:41;102206.84;;;-3.87;87.26
41254;BME280;26987;59.928;30.306;2023-01-28T03:42:11;102200.59;;;-3.85;87.29
41254;BME280;26987;59.928;30.306;2023-01-28T03:44:58;102171.75;;;-4.02;87.40
41254;BME280;26987;59.928;30.306;2023-01-28T03:47:30;102158.66;;;-4.02;86.94
41254;BME280;26987;59.928;30.306;2023-01-28T03:50:02;102180.25;;;-3.80;87.09
41254;BME280;26987;59.928;30.306;2023-01-28T03:52:38;102182.25;;;-3.85;86.69
41254;BME280;26987;59.928;30.306;2023-01-28T03:55:24;102181.53;;;-3.88;86.98
41254;BME280;26987;59.928;30.306;2023-01-28T03:57:52;102175.69;;;-3.94;87.36
41254;BME280;26987;59.928;30.306;2023-01-28T04:00:20;102168.75;;;-3.95;87.42
41254;BME280;26987;59.928;30.306;2023-01-28T04:02:49;102174.75;;;-3.93;87.56
41254;BME280;26987;59.928;30.306;2023-01-28T04:05:21;102167.75;;;-3.92;88.02
41254;BME280;26987;59.928;30.306;2023-01-28T04:07:51;102173.66;;;-3.88;87.15
41254;BME280;26987;59.928;30.306;2023-01-28T04:10:41;102170.13;;;-3.87;87.12
41254;BME280;26987;59.928;30.306;2023-01-28T04:13:19;102157.56;;;-3.98;86.76
41254;BME280;26987;59.928;30.306;2023-01-28T04:15:47;102175.38;;;-3.87;87.11
41254;BME280;26987;59.928;30.306;2023-01-28T04:18:15;102156.41;;;-3.93;87.26
41254;BME280;26987;59.928;30.306;2023-01-28T04:20:47;102151.00;;;-3.89;87.32
41254;BME280;26987;59.928;30.306;2023-01-28T04:23:17;102162.88;;;-3.82;86.97
41254;BME280;26987;59.928;30.306;2023-01-28T04:25:45;102163.75;;;-3.82;87.41
41254;BME280;26987;59.928;30.306;2023-01-28T04:28:17;102157.72;;;-3.84;86.43
41254;BME280;26987;59.928;30.306;2023-01-28T04:30:45;102159.50;;;-3.84;87.17
41254;BME280;26987;59.928;30.306;2023-01-28T04:33:24;102160.47;;;-3.87;86.88
41254;BME280;26987;59.928;30.306;2023-01-28T04:36:01;102160.09;;;-3.97;86.65
41254;BME280;26987;59.928;30.306;2023-01-28T04:39:08;102166.34;;;-3.99;86.55
41254;BME280;26987;59.928;30.306;2023-01-28T04:41:36;102162.41;;;-4.08;86.65
41254;BME280;26987;59.928;30.306;2023-01-28T04:44:10;102146.94;;;-4.13;86.73
41254;BME280;26987;59.928;30.306;2023-01-28T04:46:59;102161.34;;;-4.04;86.90
41254;BME280;26987;59.928;30.306;2023-01-28T04:49:41;102156.31;;;-4.09;86.83
41254;BME280;26987;59.928;30.306;2023-01-28T04:52:33;102151.94;;;-4.08;86.73
41254;BME280;26987;59.928;30.306;2023-01-28T04:55:09;102122.41;;;-4.29;86.95
41254;BME280;26987;59.928;30.306;2023-01-28T04:57:37;102144.69;;;-4.21;86.76
41254;BME280;26987;59.928;30.306;2023-01-28T05:00:08;102152.09;;;-4.11;86.82
41254;BME280;26987;59.928;30.306;2023-01-28T05:02:36;102143.44;;;-4.13;87.00
41254;BME280;26987;59.928;30.306;2023-01-28T05:05:04;102140.81;;;-4.13;86.84
41254;BME280;26987;59.928;30.306;2023-01-28T05:07:58;102136.28;;;-4.10;87.05
41254;BME280;26987;59.928;30.306;2023-01-28T05:10:27;102136.91;;;-4.05;86.16
41254;BME280;26987;59.928;30.306;2023-01-28T05:12:54;102137.03;;;-4.08;86.72
41254;BME280;26987;59.928;30.306;2023-01-28T05:15:22;102132.81;;;-4.10;86.93
41254;BME280;26987;59.928;30.306;2023-01-28T05:17:53;102129.25;;;-4.09;86.78
41254;BME280;26987;59.928;30.306;2023-01-28T05:20:22;102118.19;;;-4.14;86.88
41254;BME280;26987;59.928;30.306;2023-01-28T05:22:51;102070.16;;;-4.33;86.77
41254;BME280;26987;59.928;30.306;2023-01-28T05:25:23;102113.09;;;-4.00;85.84
41254;BME280;26987;59.928;30.306;2023-01-28T05:27:53;102104.59;;;-4.05;86.67
41254;BME280;26987;59.928;30.306;2023-01-28T05:30:21;102099.06;;;-4.16;86.49
41254;BME280;26987;59.928;30.306;2023-01-28T05:32:53;102113.53;;;-4.09;86.10
41254;BME280;26987;59.928;30.306;2023-01-28T05:35:25;102073.59;;;-4.32;86.00
41254;BME280;26987;59.928;30.306;2023-01-28T05:37:53;102098.75;;;-4.10;86.78
41254;BME280;26987;59.928;30.306;2023-01-28T05:40:23;102097.81;;;-4.09;86.46
41254;BME280;26987;59.928;30.306;2023-01-28T05:42:51;102105.69;;;-4.09;85.86
41254;BME280;26987;59.928;30.306;2023-01-28T05:45:48;102099.84;;;-4.14;86.07
41254;BME280;26987;59.928;30.306;2023-01-28T05:48:35;102088.78;;;-4.21;86.18
41254;BME280;26987;59.928;30.306;2023-01-28T05:51:15;102084.56;;;-4.24;86.55
41254;BME280;26987;59.928;30.306;2023-01-28T05:53:50;102101.53;;;-4.13;87.09
41254;BME280;26987;59.928;30.306;2023-01-28T05:56:19;102085.25;;;-4.20;87.16
41254;BME280;26987;59.928;30.306;2023-01-28T05:58:47;102104.94;;;-4.11;87.12
41254;BME280;26987;59.928;30.306;2023-01-28T06:01:15;102106.75;;;-4.13;86.75
41254;BME280;26987;59.928;30.306;2023-01-28T06:03:49;102105.44;;;-4.05;87.01
41254;BME280;26987;59.928;30.306;2023-01-28T06:06:18;102099.34;;;-4.05;86.82
41254;BME280;26987;59.928;30.306;2023-01-28T06:08:47;102088.03;;;-4.06;87.57
41254;BME280;26987;59.928;30.306;2023-01-28T06:11:23;102100.84;;;-3.99;87.20
41254;BME280;26987;59.928;30.306;2023-01-28T06:13:54;102098.53;;;-4.06;87.08
41254;BME280;26987;59.928;30.306;2023-01-28T06:16:26;102108.69;;;-3.99;86.78
41254;BME280;26987;59.928;30.306;2023-01-28T06:19:10;102119.41;;;-4.04;87.19
41254;BME280;26987;59.928;30.306;2023-01-28T06:21:38;102115.25;;;-4.08;86.86
41254;BME280;26987;59.928;30.306;2023-01-28T06:24:06;102114.25;;;-4.06;86.51
41254;BME280;26987;59.928;30.306;2023-01-28T06:26:36;102109.16;;;-4.09;87.23
41254;BME280;26987;59.928;30.306;2023-01-28T06:29:04;102113.69;;;-4.12;86.24
41254;BME280;26987;59.928;30.306;2023-01-28T06:31:31;102108.44;;;-4.12;86.44
41254;BME280;26987;59.928;30.306;2023-01-28T06:33:59;102111.00;;;-4.11;86.40
41254;BME280;26987;59.928;30.306;2023-01-28T06:36:27;102112.72;;;-4.10;86.69
41254;BME280;26987;59.928;30.306;2023-01-28T06:38:55;102098.13;;;-4.15;86.52
41254;BME280;26987;59.928;30.306;2023-01-28T06:41:23;102085.56;;;-4.26;87.16
41254;BME280;26987;59.928;30.306;2023-01-28T06:43:52;102101.75;;;-4.18;87.11
41254;BME280;26987;59.928;30.306;2023-01-28T06:46:20;102100.88;;;-4.19;86.81
41254;BME280;26987;59.928;30.306;2023-01-28T06:48:48;102103.34;;;-4.15;86.49
41254;BME280;26987;59.928;30.306;2023-01-28T06:51:15;102107.06;;;-4.20;86.77
41254;BME280;26987;59.928;30.306;2023-01-28T06:53:43;102106.13;;;-4.19;86.64
41254;BME280;26987;59.928;30.306;2023-01-28T06:56:11;102098.44;;;-4.22;86.78
41254;BME280;26987;59.928;30.306;2023-01-28T06:58:39;102101.66;;;-4.16;86.44
41254;BME280;26987;59.928;30.306;2023-01-28T07:01:09;102097.59;;;-4.22;87.03
41254;BME280;26987;59.928;30.306;2023-01-28T07:03:37;102092.50;;;-4.25;85.85
41254;BME280;26987;59.928;30.306;2023-01-28T07:06:05;102086.69;;;-4.32;86.36
41254;BME280;26987;59.928;30.306;2023-01-28T07:08:33;102096.28;;;-4.31;85.31
41254;BME280;26987;59.928;30.306;2023-01-28T07:11:03;102089.56;;;-4.37;86.14
41254;BME280;26987;59.928;30.306;2023-01-28T07:13:31;102081.94;;;-4.41;86.67
41254;BME280;26987;59.928;30.306;2023-01-28T07:15:59;102067.69;;;-4.36;86.33
41254;BME280;26987;59.928;30.306;2023-01-28T07:18:28;102057.50;;;-4.42;86.50
41254;BME280;26987;59.928;30.306;2023-01-28T07:20:56;102053.88;;;-4.39;86.72
41254;BME280;26987;59.928;30.306;2023-01-28T07:23:24;102058.81;;;-4.33;86.73
41254;BME280;26987;59.928;30.306;2023-01-28T07:25:52;102070.69;;;-4.26;85.96
41254;BME280;26987;59.928;30.306;2023-01-28T07:28:20;102058.22;;;-4.21;86.21
41254;BME280;26987;59.928;30.306;2023-01-28T07:30:48;102007.31;;;-4.50;86.37
41254;BME280;26987;59.928;30.306;2023-01-28T07:33:16;102055.91;;;-4.27;86.48
41254;BME280;26987;59.928;30.306;2023-01-28T07:35:46;102067.00;;;-4.22;86.20
41254;BME280;26987;59.928;30.306;2023-01-28T07:38:14;102051.59;;;-4.28;86.49
41254;BME280;26987;59.928;30.306;2023-01-28T07:40:42;102046.34;;;-4.28;86.70
41254;BME280;26987;59.928;30.306;2023-01-28T07:43:10;102042.94;;;-4.30;86.07
41254;BME280;26987;59.928;30.306;2023-01-28T07:45:40;102044.19;;;-4.20;86.11
41254;BME280;26987;59.928;30.306;2023-01-28T07:48:13;102036.47;;;-4.23;85.88
41254;BME280;26987;59.928;30.306;2023-01-28T07:50:49;102046.56;;;-4.15;85.90
41254;BME280;26987;59.928;30.306;2023-01-28T07:53:17;102033.41;;;-4.13;86.03
41254;BME280;26987;59.928;30.306;2023-01-28T07:55:45;102036.78;;;-4.11;85.43
41254;BME280;26987;59.928;30.306;2023-01-28T07:58:13;102030.47;;;-4.07;85.69
41254;BME280;26987;59.928;30.306;2023-01-28T08:00:41;102036.47;;;-4.05;85.60
41254;BME280;26987;59.928;30.306;2023-01-28T08:03:12;102031.22;;;-4.05;85.55
41254;BME280;26987;59.928;30.306;2023-01-28T08:05:43;102034.03;;;-4.08;84.55
41254;BME280;26987;59.928;30.306;2023-01-28T08:08:13;102032.38;;;-4.11;84.87
41254;BME280;26987;59.928;30.306;2023-01-28T08:10:42;101987.66;;;-4.41;84.69
41254;BME280;26987;59.928;30.306;2023-01-28T08:13:11;102033.41;;;-4.13;84.85
41254;BME280;26987;59.928;30.306;2023-01-28T08:15:39;102021.91;;;-4.11;85.36
41254;BME280;26987;59.928;30.306;2023-01-28T08:18:08;101993.66;;;-4.22;85.22
41254;BME280;26987;59.928;30.306;2023-01-28T08:20:39;102005.00;;;-4.05;85.64
41254;BME280;26987;59.928;30.306;2023-01-28T08:23:11;102007.72;;;-4.07;84.97
41254;BME280;26987;59.928;30.306;2023-01-28T08:25:41;102005.19;;;-4.08;85.09
41254;BME280;26987;59.928;30.306;2023-01-28T08:28:10;102004.94;;;-4.03;84.67
41254;BME280;26987;59.928;30.306;2023-01-28T08:30:38;102003.00;;;-4.00;84.36
41254;BME280;26987;59.928;30.306;2023-01-28T08:33:06;101998.72;;;-4.01;84.58
41254;BME280;26987;59.928;30.306;2023-01-28T08:35:34;101990.69;;;-3.98;85.17
41254;BME280;26987;59.928;30.306;2023-01-28T08:38:04;101990.69;;;-3.98;85.17
41254;BME280;26987;59.928;30.306;2023-01-28T08:40:33;101968.50;;;-4.08;85.39
41254;BME280;26987;59.928;30.306;2023-01-28T08:43:03;101941.44;;;-4.09;85.09
41254;BME280;26987;59.928;30.306;2023-01-28T08:45:31;101974.44;;;-3.88;84.48
41254;BME280;26987;59.928;30.306;2023-01-28T08:48:01;101970.22;;;-3.91;84.79
41254;BME280;26987;59.928;30.306;2023-01-28T08:50:30;101930.13;;;-4.09;84.97
41254;BME280;26987;59.928;30.306;2023-01-28T08:53:00;101924.03;;;-4.10;84.42
41254;BME280;26987;59.928;30.306;2023-01-28T08:55:30;101948.84;;;-3.99;84.38
41254;BME280;26987;59.928;30.306;2023-01-28T08:58:03;101955.63;;;-3.79;84.63
41254;BME280;26987;59.928;30.306;2023-01-28T09:00:31;101948.78;;;-3.82;84.16
41254;BME280;26987;59.928;30.306;2023-01-28T09:02:59;101925.66;;;-3.91;84.13
41254;BME280;26987;59.928;30.306;2023-01-28T09:05:28;101951.31;;;-3.64;83.97
41254;BME280;26987;59.928;30.306;2023-01-28T09:08:00;101951.84;;;-3.57;83.91
41254;BME280;26987;59.928;30.306;2023-01-28T09:10:28;101949.63;;;-3.49;84.02
41254;BME280;26987;59.928;30.306;2023-01-28T09:12:56;101944.81;;;-3.40;83.67
41254;BME280;26987;59.928;30.306;2023-01-28T09:15:26;101946.44;;;-3.38;83.73
41254;BME280;26987;59.928;30.306;2023-01-28T09:17:56;101942.78;;;-3.35;83.40
41254;BME280;26987;59.928;30.306;2023-01-28T09:20:25;101932.28;;;-3.35;83.54
41254;BME280;26987;59.928;30.306;2023-01-28T09:22:53;101914.59;;;-3.48;82.84
41254;BME280;26987;59.928;30.306;2023-01-28T09:25:20;101927.13;;;-3.37;82.35
41254;BME280;26987;59.928;30.306;2023-01-28T09:27:48;101930.44;;;-3.33;82.39
41254;BME280;26987;59.928;30.306;2023-01-28T09:30:16;101923.47;;;-3.34;82.46
41254;BME280;26987;59.928;30.306;2023-01-28T09:32:49;101926.88;;;-3.32;82.75
41254;BME280;26987;59.928;30.306;2023-01-28T09:35:17;101917.50;;;-3.36;82.82
41254;BME280;26987;59.928;30.306;2023-01-28T09:37:45;101886.78;;;-3.50;82.71
41254;BME280;26987;59.928;30.306;2023-01-28T09:40:16;101929.16;;;-3.26;82.98
41254;BME280;26987;59.928;30.306;2023-01-28T09:43:01;101895.38;;;-3.32;83.02
41254;BME280;26987;59.928;30.306;2023-01-28T09:45:36;101872.13;;;-3.38;82.35
41254;BME280;26987;59.928;30.306;2023-01-28T09:48:12;101909.31;;;-3.15;82.10
41254;BME280;26987;59.928;30.306;2023-01-28T09:50:43;101906.31;;;-3.24;81.23
41254;BME280;26987;59.928;30.306;2023-01-28T09:53:16;101900.22;;;-3.24;81.30
41254;BME280;26987;59.928;30.306;2023-01-28T09:55:48;101896.38;;;-3.19;81.37
41254;BME280;26987;59.928;30.306;2023-01-28T09:58:17;101886.75;;;-3.18;81.01
41254;BME280;26987;59.928;30.306;2023-01-28T10:00:51;101882.50;;;-3.21;81.25
41254;BME280;26987;59.928;30.306;2023-01-28T10:03:46;101882.75;;;-3.09;80.94
41254;BME280;26987;59.928;30.306;2023-01-28T10:06:27;101877.06;;;-3.18;80.73
41254;BME280;26987;59.928;30.306;2023-01-28T10:09:14;101881.56;;;-3.20;80.91
41254;BME280;26987;59.928;30.306;2023-01-28T10:11:57;101865.31;;;-3.10;81.02
41254;BME280;26987;59.928;30.306;2023-01-28T10:14:38;101870.34;;;-3.07;80.54
41254;BME280;26987;59.928;30.306;2023-01-28T10:17:13;101821.84;;;-3.31;80.60
41254;BME280;26987;59.928;30.306;2023-01-28T10:19:48;101857.72;;;-3.00;80.28
41254;BME280;26987;59.928;30.306;2023-01-28T10:22:21;101859.16;;;-2.95;79.98
41254;BME280;26987;59.928;30.306;2023-01-28T10:24:54;101819.44;;;-3.19;80.02
41254;BME280;26987;59.928;30.306;2023-01-28T10:27:29;101844.59;;;-3.00;79.88
41254;BME280;26987;59.928;30.306;2023-01-28T10:29:59;101831.41;;;-2.99;80.47
41254;BME280;26987;59.928;30.306;2023-01-28T10:32:38;101806.63;;;-3.09;80.08
41254;BME280;26987;59.928;30.306;2023-01-28T10:35:12;101815.81;;;-3.02;79.61
41254;BME280;26987;59.928;30.306;2023-01-28T10:37:40;101819.56;;;-3.06;80.51
41254;BME280;26987;59.928;30.306;2023-01-28T10:40:13;101811.25;;;-2.98;80.03
41254;BME280;26987;59.928;30.306;2023-01-28T10:42:42;101811.34;;;-3.00;80.82
41254;BME280;26987;59.928;30.306;2023-01-28T10:45:16;101801.38;;;-3.09;80.82
41254;BME280;26987;59.928;30.306;2023-01-28T10:47:48;101798.56;;;-3.06;81.32
41254;BME280;26987;59.928;30.306;2023-01-28T10:50:22;101825.44;;;-2.86;80.75
41254;BME280;26987;59.928;30.306;2023-01-28T10:52:52;101812.38;;;-2.88;80.75
41254;BME280;26987;59.928;30.306;2023-01-28T10:55:21;101802.06;;;-2.91;80.81
41254;BME280;26987;59.928;30.306;2023-01-28T10:57:49;101800.09;;;-2.87;80.84
41254;BME280;26987;59.928;30.306;2023-01-28T11:00:22;101793.34;;;-2.77;80.93
41254;BME280;26987;59.928;30.306;2023-01-28T11:02:51;101801.41;;;-2.80;79.96
41254;BME280;26987;59.928;30.306;2023-01-28T11:05:22;101775.31;;;-2.98;79.41
41254;BME280;26987;59.928;30.306;2023-01-28T11:08:03;101805.59;;;-2.92;79.58
41254;BME280;26987;59.928;30.306;2023-01-28T11:10:32;101806.28;;;-3.03;79.47
41254;BME280;26987;59.928;30.306;2023-01-28T11:13:02;101797.91;;;-3.10;79.33
41254;BME280;26987;59.928;30.306;2023-01-28T11:15:31;101781.69;;;-3.17;79.26
41254;BME280;26987;59.928;30.306;2023-01-28T11:18:02;101784.75;;;-3.24;80.03
41254;BME280;26987;59.928;30.306;2023-01-28T11:20:36;101729.78;;;-3.57;80.85
41254;BME280;26987;59.928;30.306;2023-01-28T11:23:05;101777.16;;;-3.29;80.72
41254;BME280;26987;59.928;30.306;2023-01-28T11:25:34;101752.31;;;-3.38;81.01
41254;BME280;26987;59.928;30.306;2023-01-28T11:28:13;101759.56;;;-3.27;80.68
41254;BME280;26987;59.928;30.306;2023-01-28T11:30:42;101755.03;;;-3.25;81.07
41254;BME280;26987;59.928;30.306;2023-01-28T11:33:15;101751.78;;;-3.28;80.40
41254;BME280;26987;59.928;30.306;2023-01-28T11:35:53;101737.81;;;-3.29;80.68
41254;BME280;26987;59.928;30.306;2023-01-28T11:38:24;101724.88;;;-3.32;80.60
41254;BME280;26987;59.928;30.306;2023-01-28T11:40:53;101721.47;;;-3.34;80.30
41254;BME280;26987;59.928;30.306;2023-01-28T11:43:22;101718.84;;;-3.34;79.94
41254;BME280;26987;59.928;30.306;2023-01-28T11:45:57;101708.38;;;-3.34;79.85
41254;BME280;26987;59.928;30.306;2023-01-28T11:48:34;101707.81;;;-3.39;80.57
41254;BME280;26987;59.928;30.306;2023-01-28T11:51:13;101698.09;;;-3.37;80.68
41254;BME280;26987;59.928;30.306;2023-01-28T11:54:03;101690.00;;;-3.34;80.80
41254;BME280;26987;59.928;30.306;2023-01-28T11:56:45;101695.91;;;-3.31;80.80
41254;BME280;26987;59.928;30.306;2023-01-28T11:59:28;101688.13;;;-3.32;80.36
41254;BME280;26987;59.928;30.306;2023-01-28T12:02:08;101689.00;;;-3.32;80.42
41254;BME280;26987;59.928;30.306;2023-01-28T12:04:57;101687.28;;;-3.33;80.89
41254;BME280;26987;59.928;30.306;2023-01-28T12:07:36;101674.06;;;-3.31;81.61
41254;BME280;26987;59.928;30.306;2023-01-28T12:10:12;101662.09;;;-3.35;81.34
41254;BME280;26987;59.928;30.306;2023-01-28T12:13:09;101663.97;;;-3.23;81.45
41254;BME280;26987;59.928;30.306;2023-01-28T12:15:55;101659.19;;;-3.16;81.78
41254;BME280;26987;59.928;30.306;2023-01-28T12:18:38;101606.25;;;-3.67;81.95
41254;BME280;26987;59.928;30.306;2023-01-28T12:21:15;101654.31;;;-3.37;82.19
41254;BME280;26987;59.928;30.306;2023-01-28T12:24:00;101639.25;;;-3.33;82.42
41254;BME280;26987;59.928;30.306;2023-01-28T12:26:37;101644.31;;;-3.30;81.71
41254;BME280;26987;59.928;30.306;2023-01-28T12:29:21;101584.41;;;-3.67;82.16
41254;BME280;26987;59.928;30.306;2023-01-28T12:32:02;101538.81;;;-3.94;82.54
41254;BME280;26987;59.928;30.306;2023-01-28T12:37:48;101626.84;;;-3.31;82.16
41254;BME280;26987;59.928;30.306;2023-01-28T12:40:38;101609.06;;;-3.40;82.71
41254;BME280;26987;59.928;30.306;2023-01-28T12:43:12;101614.41;;;-3.42;82.36
41254;BME280;26987;59.928;30.306;2023-01-28T12:45:44;101617.31;;;-3.47;82.40
41254;BME280;26987;59.928;30.306;2023-01-28T12:48:16;101602.97;;;-3.56;82.53
41254;BME280;26987;59.928;30.306;2023-01-28T12:50:48;101615.44;;;-3.45;82.36
41254;BME280;26987;59.928;30.306;2023-01-28T12:53:22;101600.38;;;-3.56;82.01
41254;BME280;26987;59.928;30.306;2023-01-28T12:55:55;101611.97;;;-3.45;81.85
41254;BME280;26987;59.928;30.306;2023-01-28T12:58:35;101604.03;;;-3.44;82.73
41254;BME280;26987;59.928;30.306;2023-01-28T13:01:08;101592.50;;;-3.56;82.41
41254;BME280;26987;59.928;30.306;2023-01-28T13:03:40;101602.13;;;-3.42;82.57
41254;BME280;26987;59.928;30.306;2023-01-28T13:06:14;101596.16;;;-3.44;82.68
41254;BME280;26987;59.928;30.306;2023-01-28T13:08:45;101596.91;;;-3.27;82.79
41254;BME280;26987;59.928;30.306;2023-01-28T13:11:17;101583.22;;;-3.32;82.37
41254;BME280;26987;59.928;30.306;2023-01-28T13:13:46;101567.75;;;-3.37;82.53
41254;BME280;26987;59.928;30.306;2023-01-28T13:16:14;101547.22;;;-3.45;81.84